Terminal Aerodrome Forecast
Issued by NWS Milwaukee/Sullivan, WI

Home | Current Version | Previous Version | Text Only | Print | Product List | Glossary On
Versions: 1 2 3 4 5 6 7 8 9 10 11 12 13 14 15 16 17 18 19 20 21 22 23 24 25 26 27 28 29 30 31 32 33 34 35 36 37 38
000
FTUS43 KMKX 251753
TAFMSN
TAF
KMSN 251753Z 2518/2618 19008G16KT P6SM SCT025 BKN120
      TEMPO 2518/2522 BKN025
     FM260000 17006KT P6SM BKN035
     FM261000 VRB02KT P6SM SCT030
     FM261400 27004KT P6SM BKN150=

USA.gov is the U.S. government's official web portal to all federal, state and local government web resources and services.